sensor_id;sensor_type;location;lat;lon;timestamp;P1;durP1;ratioP1;P2;durP2;ratioP2
57309;SDS011;43153;50.984;18.204;2023-03-01T00:01:39;77.40;;;28.60;;
57309;SDS011;43153;50.984;18.204;2023-03-01T00:04:09;74.60;;;30.20;;
57309;SDS011;43153;50.984;18.204;2023-03-01T00:06:36;82.20;;;29.90;;
57309;SDS011;43153;50.984;18.204;2023-03-01T00:09:16;78.70;;;30.90;;
57309;SDS011;43153;50.984;18.204;2023-03-01T00:11:45;78.80;;;30.40;;
57309;SDS011;43153;50.984;18.204;2023-03-01T00:14:13;89.20;;;32.50;;
57309;SDS011;43153;50.984;18.204;2023-03-01T00:16:43;82.70;;;32.00;;
57309;SDS011;43153;50.984;18.204;2023-03-01T00:19:14;86.30;;;33.00;;
57309;SDS011;43153;50.984;18.204;2023-03-01T00:21:47;81.30;;;30.50;;
57309;SDS011;43153;50.984;18.204;2023-03-01T00:24:16;74.00;;;29.20;;
57309;SDS011;43153;50.984;18.204;2023-03-01T00:26:45;72.80;;;29.40;;
57309;SDS011;43153;50.984;18.204;2023-03-01T00:29:13;71.30;;;28.80;;
57309;SDS011;43153;50.984;18.204;2023-03-01T00:31:43;79.20;;;31.50;;
57309;SDS011;43153;50.984;18.204;2023-03-01T00:34:09;82.10;;;31.30;;
57309;SDS011;43153;50.984;18.204;2023-03-01T00:36:39;84.60;;;33.00;;
57309;SDS011;43153;50.984;18.204;2023-03-01T00:39:13;71.60;;;27.50;;
57309;SDS011;43153;50.984;18.204;2023-03-01T00:41:41;73.00;;;28.90;;
57309;SDS011;43153;50.984;18.204;2023-03-01T00:44:07;74.20;;;30.90;;
57309;SDS011;43153;50.984;18.204;2023-03-01T00:46:38;76.40;;;30.00;;
57309;SDS011;43153;50.984;18.204;2023-03-01T00:49:06;72.40;;;30.30;;
57309;SDS011;43153;50.984;18.204;2023-03-01T00:51:35;82.80;;;31.20;;
57309;SDS011;43153;50.984;18.204;2023-03-01T00:54:08;86.80;;;33.20;;
57309;SDS011;43153;50.984;18.204;2023-03-01T00:56:34;72.50;;;30.60;;
57309;SDS011;43153;50.984;18.204;2023-03-01T00:59:02;76.50;;;30.00;;
57309;SDS011;43153;50.984;18.204;2023-03-01T01:01:32;70.10;;;29.70;;
57309;SDS011;43153;50.984;18.204;2023-03-01T01:04:03;77.80;;;29.40;;
57309;SDS011;43153;50.984;18.204;2023-03-01T01:08:58;86.30;;;35.30;;
57309;SDS011;43153;50.984;18.204;2023-03-01T01:11:25;77.80;;;31.30;;
57309;SDS011;43153;50.984;18.204;2023-03-01T01:13:57;79.60;;;31.60;;
57309;SDS011;43153;50.984;18.204;2023-03-01T01:16:25;86.50;;;32.80;;
57309;SDS011;43153;50.984;18.204;2023-03-01T01:18:57;81.30;;;31.60;;
57309;SDS011;43153;50.984;18.204;2023-03-01T01:21:24;80.30;;;32.10;;
57309;SDS011;43153;50.984;18.204;2023-03-01T01:23:51;76.60;;;31.20;;
57309;SDS011;43153;50.984;18.204;2023-03-01T01:26:21;74.50;;;31.90;;
57309;SDS011;43153;50.984;18.204;2023-03-01T01:28:49;81.20;;;33.40;;
57309;SDS011;43153;50.984;18.204;2023-03-01T01:31:16;80.30;;;30.90;;
57309;SDS011;43153;50.984;18.204;2023-03-01T01:33:44;87.60;;;34.70;;
57309;SDS011;43153;50.984;18.204;2023-03-01T01:36:11;69.80;;;30.50;;
57309;SDS011;43153;50.984;18.204;2023-03-01T01:38:38;82.40;;;33.10;;
57309;SDS011;43153;50.984;18.204;2023-03-01T01:41:05;77.70;;;32.20;;
57309;SDS011;43153;50.984;18.204;2023-03-01T01:43:34;78.40;;;30.80;;
57309;SDS011;43153;50.984;18.204;2023-03-01T01:46:21;71.50;;;31.80;;
57309;SDS011;43153;50.984;18.204;2023-03-01T01:49:01;75.20;;;30.60;;
57309;SDS011;43153;50.984;18.204;2023-03-01T01:51:37;85.10;;;30.70;;
57309;SDS011;43153;50.984;18.204;2023-03-01T01:54:09;81.30;;;32.40;;
57309;SDS011;43153;50.984;18.204;2023-03-01T01:56:40;77.70;;;31.60;;
57309;SDS011;43153;50.984;18.204;2023-03-01T01:59:10;82.40;;;31.30;;
57309;SDS011;43153;50.984;18.204;2023-03-01T02:01:38;76.80;;;32.50;;
57309;SDS011;43153;50.984;18.204;2023-03-01T02:04:09;105.90;;;37.50;;
57309;SDS011;43153;50.984;18.204;2023-03-01T02:06:38;97.10;;;37.40;;
57309;SDS011;43153;50.984;18.204;2023-03-01T02:09:08;98.70;;;34.60;;
57309;SDS011;43153;50.984;18.204;2023-03-01T02:11:37;94.90;;;36.30;;
57309;SDS011;43153;50.984;18.204;2023-03-01T02:14:05;97.00;;;36.20;;
57309;SDS011;43153;50.984;18.204;2023-03-01T02:16:31;82.60;;;34.40;;
57309;SDS011;43153;50.984;18.204;2023-03-01T02:18:58;88.50;;;35.40;;
57309;SDS011;43153;50.984;18.204;2023-03-01T03:02:37;87.90;;;36.90;;
57309;SDS011;43153;50.984;18.204;2023-03-01T03:05:07;94.90;;;35.80;;
57309;SDS011;43153;50.984;18.204;2023-03-01T03:07:41;98.60;;;39.50;;
57309;SDS011;43153;50.984;18.204;2023-03-01T03:10:14;92.60;;;39.60;;
57309;SDS011;43153;50.984;18.204;2023-03-01T03:12:53;95.80;;;40.30;;
57309;SDS011;43153;50.984;18.204;2023-03-01T03:17:47;86.40;;;35.90;;
57309;SDS011;43153;50.984;18.204;2023-03-01T03:20:15;105.70;;;40.10;;
57309;SDS011;43153;50.984;18.204;2023-03-01T03:22:50;110.10;;;42.20;;
57309;SDS011;43153;50.984;18.204;2023-03-01T03:25:17;103.80;;;45.30;;
57309;SDS011;43153;50.984;18.204;2023-03-01T03:27:45;106.60;;;41.30;;
57309;SDS011;43153;50.984;18.204;2023-03-01T03:30:14;98.70;;;39.50;;
57309;SDS011;43153;50.984;18.204;2023-03-01T03:32:43;108.70;;;40.10;;
57309;SDS011;43153;50.984;18.204;2023-03-01T03:35:43;103.50;;;39.90;;
57309;SDS011;43153;50.984;18.204;2023-03-01T03:38:13;102.20;;;40.10;;
57309;SDS011;43153;50.984;18.204;2023-03-01T03:40:44;107.90;;;41.30;;
57309;SDS011;43153;50.984;18.204;2023-03-01T03:43:31;101.80;;;39.30;;
57309;SDS011;43153;50.984;18.204;2023-03-01T03:45:59;98.60;;;37.70;;
57309;SDS011;43153;50.984;18.204;2023-03-01T03:48:26;97.70;;;36.30;;
57309;SDS011;43153;50.984;18.204;2023-03-01T03:50:54;92.90;;;36.80;;
57309;SDS011;43153;50.984;18.204;2023-03-01T03:53:24;95.10;;;36.30;;
57309;SDS011;43153;50.984;18.204;2023-03-01T03:55:51;100.00;;;38.70;;
57309;SDS011;43153;50.984;18.204;2023-03-01T03:58:22;102.70;;;38.70;;
57309;SDS011;43153;50.984;18.204;2023-03-01T04:00:50;108.20;;;42.60;;
57309;SDS011;43153;50.984;18.204;2023-03-01T04:03:23;97.40;;;37.90;;
57309;SDS011;43153;50.984;18.204;2023-03-01T04:05:50;87.70;;;37.00;;
57309;SDS011;43153;50.984;18.204;2023-03-01T04:08:20;108.10;;;39.80;;
57309;SDS011;43153;50.984;18.204;2023-03-01T04:10:48;99.30;;;38.00;;
57309;SDS011;43153;50.984;18.204;2023-03-01T04:13:25;98.50;;;37.60;;
57309;SDS011;43153;50.984;18.204;2023-03-01T04:15:59;98.20;;;38.90;;
57309;SDS011;43153;50.984;18.204;2023-03-01T04:18:27;95.70;;;38.20;;
57309;SDS011;43153;50.984;18.204;2023-03-01T04:20:59;90.40;;;35.30;;
57309;SDS011;43153;50.984;18.204;2023-03-01T04:23:25;93.70;;;39.70;;
57309;SDS011;43153;50.984;18.204;2023-03-01T04:25:53;98.50;;;38.90;;
57309;SDS011;43153;50.984;18.204;2023-03-01T04:28:22;108.20;;;40.50;;
57309;SDS011;43153;50.984;18.204;2023-03-01T04:30:53;107.70;;;44.00;;
57309;SDS011;43153;50.984;18.204;2023-03-01T04:33:22;114.20;;;43.60;;
57309;SDS011;43153;50.984;18.204;2023-03-01T04:35:50;135.90;;;49.20;;
57309;SDS011;43153;50.984;18.204;2023-03-01T04:38:23;146.20;;;51.10;;
57309;SDS011;43153;50.984;18.204;2023-03-01T04:40:51;114.10;;;43.80;;
57309;SDS011;43153;50.984;18.204;2023-03-01T04:43:17;107.60;;;40.40;;
57309;SDS011;43153;50.984;18.204;2023-03-01T04:45:43;111.60;;;42.00;;
57309;SDS011;43153;50.984;18.204;2023-03-01T04:48:11;132.40;;;46.00;;
57309;SDS011;43153;50.984;18.204;2023-03-01T04:50:38;119.60;;;44.40;;
57309;SDS011;43153;50.984;18.204;2023-03-01T04:53:03;108.70;;;43.60;;
57309;SDS011;43153;50.984;18.204;2023-03-01T04:55:33;106.80;;;40.40;;
57309;SDS011;43153;50.984;18.204;2023-03-01T04:58:02;108.00;;;41.30;;
57309;SDS011;43153;50.984;18.204;2023-03-01T05:00:32;112.00;;;42.50;;
57309;SDS011;43153;50.984;18.204;2023-03-01T05:03:00;107.70;;;38.60;;
57309;SDS011;43153;50.984;18.204;2023-03-01T05:05:36;123.80;;;44.90;;
57309;SDS011;43153;50.984;18.204;2023-03-01T05:08:07;111.60;;;43.00;;
57309;SDS011;43153;50.984;18.204;2023-03-01T05:10:34;95.30;;;40.00;;
57309;SDS011;43153;50.984;18.204;2023-03-01T05:13:04;103.00;;;40.90;;
57309;SDS011;43153;50.984;18.204;2023-03-01T05:15:32;121.00;;;43.00;;
57309;SDS011;43153;50.984;18.204;2023-03-01T05:18:01;114.20;;;41.50;;
57309;SDS011;43153;50.984;18.204;2023-03-01T05:20:29;119.30;;;42.40;;
57309;SDS011;43153;50.984;18.204;2023-03-01T05:22:58;111.30;;;43.60;;
57309;SDS011;43153;50.984;18.204;2023-03-01T05:25:26;98.30;;;40.40;;
57309;SDS011;43153;50.984;18.204;2023-03-01T05:27:59;101.60;;;40.70;;
57309;SDS011;43153;50.984;18.204;2023-03-01T05:30:31;112.00;;;44.80;;
57309;SDS011;43153;50.984;18.204;2023-03-01T05:32:58;97.40;;;39.90;;
57309;SDS011;43153;50.984;18.204;2023-03-01T05:35:29;117.10;;;42.00;;
57309;SDS011;43153;50.984;18.204;2023-03-01T05:37:59;128.80;;;48.40;;
57309;SDS011;43153;50.984;18.204;2023-03-01T05:40:32;119.00;;;44.50;;
57309;SDS011;43153;50.984;18.204;2023-03-01T05:43:04;110.20;;;42.30;;
57309;SDS011;43153;50.984;18.204;2023-03-01T05:45:35;104.30;;;40.10;;
57309;SDS011;43153;50.984;18.204;2023-03-01T05:48:04;103.60;;;41.10;;
57309;SDS011;43153;50.984;18.204;2023-03-01T05:50:38;116.30;;;43.90;;
57309;SDS011;43153;50.984;18.204;2023-03-01T05:53:14;111.90;;;45.10;;
57309;SDS011;43153;50.984;18.204;2023-03-01T05:55:50;115.60;;;43.50;;
57309;SDS011;43153;50.984;18.204;2023-03-01T05:58:27;122.10;;;47.80;;
57309;SDS011;43153;50.984;18.204;2023-03-01T06:00:59;132.60;;;48.10;;
57309;SDS011;43153;50.984;18.204;2023-03-01T06:03:27;117.00;;;45.00;;
57309;SDS011;43153;50.984;18.204;2023-03-01T06:05:59;116.30;;;45.70;;
57309;SDS011;43153;50.984;18.204;2023-03-01T06:08:30;109.30;;;43.90;;
57309;SDS011;43153;50.984;18.204;2023-03-01T06:10:56;98.10;;;40.20;;
57309;SDS011;43153;50.984;18.204;2023-03-01T06:13:23;103.10;;;42.40;;
57309;SDS011;43153;50.984;18.204;2023-03-01T06:15:51;107.10;;;42.50;;
57309;SDS011;43153;50.984;18.204;2023-03-01T06:18:23;110.80;;;46.80;;
57309;SDS011;43153;50.984;18.204;2023-03-01T06:20:52;111.40;;;43.80;;
57309;SDS011;43153;50.984;18.204;2023-03-01T06:23:21;105.90;;;42.30;;
57309;SDS011;43153;50.984;18.204;2023-03-01T06:25:54;110.30;;;46.00;;
57309;SDS011;43153;50.984;18.204;2023-03-01T06:28:22;106.20;;;45.00;;
57309;SDS011;43153;50.984;18.204;2023-03-01T06:30:49;114.00;;;46.70;;
57309;SDS011;43153;50.984;18.204;2023-03-01T06:33:19;122.50;;;48.00;;
57309;SDS011;43153;50.984;18.204;2023-03-01T06:35:56;117.40;;;51.70;;
57309;SDS011;43153;50.984;18.204;2023-03-01T06:38:25;120.20;;;47.30;;
57309;SDS011;43153;50.984;18.204;2023-03-01T06:41:02;138.10;;;53.40;;
57309;SDS011;43153;50.984;18.204;2023-03-01T06:43:27;135.20;;;56.80;;
57309;SDS011;43153;50.984;18.204;2023-03-01T06:46:15;142.40;;;55.20;;
57309;SDS011;43153;50.984;18.204;2023-03-01T06:48:41;155.70;;;60.90;;
57309;SDS011;43153;50.984;18.204;2023-03-01T06:51:07;161.20;;;64.30;;
57309;SDS011;43153;50.984;18.204;2023-03-01T06:53:34;162.10;;;65.70;;
57309;SDS011;43153;50.984;18.204;2023-03-01T06:56:04;153.20;;;60.20;;
57309;SDS011;43153;50.984;18.204;2023-03-01T06:58:35;167.70;;;69.00;;
57309;SDS011;43153;50.984;18.204;2023-03-01T07:01:10;159.40;;;65.20;;
57309;SDS011;43153;50.984;18.204;2023-03-01T07:03:43;163.40;;;66.20;;
57309;SDS011;43153;50.984;18.204;2023-03-01T07:06:11;148.10;;;63.10;;
57309;SDS011;43153;50.984;18.204;2023-03-01T07:08:43;169.10;;;73.60;;
57309;SDS011;43153;50.984;18.204;2023-03-01T07:11:11;170.90;;;73.90;;
57309;SDS011;43153;50.984;18.204;2023-03-01T07:13:39;157.40;;;66.50;;
57309;SDS011;43153;50.984;18.204;2023-03-01T07:16:06;158.00;;;70.10;;
57309;SDS011;43153;50.984;18.204;2023-03-01T07:18:32;130.80;;;59.90;;
57309;SDS011;43153;50.984;18.204;2023-03-01T07:21:06;125.40;;;54.20;;
57309;SDS011;43153;50.984;18.204;2023-03-01T07:23:49;115.90;;;52.00;;
57309;SDS011;43153;50.984;18.204;2023-03-01T07:26:22;100.60;;;46.30;;
57309;SDS011;43153;50.984;18.204;2023-03-01T07:28:51;107.50;;;50.40;;
57309;SDS011;43153;50.984;18.204;2023-03-01T07:31:22;127.80;;;56.60;;
57309;SDS011;43153;50.984;18.204;2023-03-01T07:33:57;109.80;;;48.50;;
57309;SDS011;43153;50.984;18.204;2023-03-01T07:36:23;107.20;;;50.30;;
57309;SDS011;43153;50.984;18.204;2023-03-01T07:38:51;106.60;;;51.30;;
57309;SDS011;43153;50.984;18.204;2023-03-01T07:41:17;99.70;;;47.50;;
57309;SDS011;43153;50.984;18.204;2023-03-01T07:43:46;111.60;;;52.90;;
57309;SDS011;43153;50.984;18.204;2023-03-01T07:46:13;103.70;;;48.50;;
57309;SDS011;43153;50.984;18.204;2023-03-01T07:48:44;119.60;;;52.60;;
57309;SDS011;43153;50.984;18.204;2023-03-01T07:51:15;116.60;;;57.00;;
57309;SDS011;43153;50.984;18.204;2023-03-01T07:53:46;125.90;;;55.80;;
57309;SDS011;43153;50.984;18.204;2023-03-01T07:56:15;111.90;;;53.20;;
57309;SDS011;43153;50.984;18.204;2023-03-01T07:58:45;98.70;;;49.80;;
57309;SDS011;43153;50.984;18.204;2023-03-01T08:01:16;113.50;;;55.20;;
57309;SDS011;43153;50.984;18.204;2023-03-01T08:03:45;111.50;;;54.30;;
57309;SDS011;43153;50.984;18.204;2023-03-01T08:06:12;120.70;;;54.40;;
57309;SDS011;43153;50.984;18.204;2023-03-01T08:08:48;122.70;;;57.00;;
57309;SDS011;43153;50.984;18.204;2023-03-01T08:11:15;117.90;;;56.60;;
57309;SDS011;43153;50.984;18.204;2023-03-01T08:13:48;119.70;;;57.30;;
57309;SDS011;43153;50.984;18.204;2023-03-01T08:16:22;111.20;;;52.30;;
57309;SDS011;43153;50.984;18.204;2023-03-01T08:18:48;108.10;;;54.20;;
57309;SDS011;43153;50.984;18.204;2023-03-01T08:21:18;106.30;;;50.90;;
57309;SDS011;43153;50.984;18.204;2023-03-01T08:23:47;108.60;;;52.20;;
57309;SDS011;43153;50.984;18.204;2023-03-01T08:26:15;109.20;;;51.10;;
57309;SDS011;43153;50.984;18.204;2023-03-01T08:28:48;102.40;;;48.30;;
57309;SDS011;43153;50.984;18.204;2023-03-01T08:31:21;100.40;;;48.50;;
57309;SDS011;43153;50.984;18.204;2023-03-01T08:33:49;89.80;;;46.00;;
57309;SDS011;43153;50.984;18.204;2023-03-01T08:36:31;73.80;;;39.60;;
57309;SDS011;43153;50.984;18.204;2023-03-01T08:39:01;69.70;;;35.70;;
57309;SDS011;43153;50.984;18.204;2023-03-01T08:41:34;67.70;;;33.30;;
57309;SDS011;43153;50.984;18.204;2023-03-01T08:44:02;61.10;;;31.70;;
57309;SDS011;43153;50.984;18.204;2023-03-01T08:46:31;64.00;;;33.20;;
57309;SDS011;43153;50.984;18.204;2023-03-01T08:49:14;58.10;;;29.10;;
57309;SDS011;43153;50.984;18.204;2023-03-01T08:51:47;57.30;;;29.40;;
57309;SDS011;43153;50.984;18.204;2023-03-01T09:32:43;43.80;;;26.30;;
57309;SDS011;43153;50.984;18.204;2023-03-01T09:35:14;47.00;;;25.00;;
57309;SDS011;43153;50.984;18.204;2023-03-01T09:37:40;41.90;;;22.40;;
57309;SDS011;43153;50.984;18.204;2023-03-01T09:40:12;47.40;;;23.90;;
57309;SDS011;43153;50.984;18.204;2023-03-01T09:42:49;40.70;;;22.40;;
57309;SDS011;43153;50.984;18.204;2023-03-01T09:45:39;29.80;;;16.30;;
57309;SDS011;43153;50.984;18.204;2023-03-01T09:48:23;33.30;;;19.20;;
57309;SDS011;43153;50.984;18.204;2023-03-01T09:51:18;32.00;;;18.80;;
57309;SDS011;43153;50.984;18.204;2023-03-01T09:53:48;32.80;;;18.40;;
57309;SDS011;43153;50.984;18.204;2023-03-01T10:04:27;33.00;;;18.90;;
57309;SDS011;43153;50.984;18.204;2023-03-01T10:13:19;40.70;;;20.60;;
57309;SDS011;43153;50.984;18.204;2023-03-01T10:16:01;38.70;;;22.60;;
57309;SDS011;43153;50.984;18.204;2023-03-01T10:18:51;40.00;;;22.10;;
57309;SDS011;43153;50.984;18.204;2023-03-01T10:21:22;37.60;;;20.70;;
57309;SDS011;43153;50.984;18.204;2023-03-01T10:23:54;36.70;;;20.40;;
57309;SDS011;43153;50.984;18.204;2023-03-01T10:26:34;33.50;;;19.70;;
57309;SDS011;43153;50.984;18.204;2023-03-01T10:29:14;37.00;;;20.90;;
57309;SDS011;43153;50.984;18.204;2023-03-01T10:31:49;30.70;;;18.40;;
57309;SDS011;43153;50.984;18.204;2023-03-01T10:34:22;36.30;;;18.70;;
57309;SDS011;43153;50.984;18.204;2023-03-01T10:37:30;31.80;;;18.00;;
57309;SDS011;43153;50.984;18.204;2023-03-01T10:40:06;31.50;;;18.30;;
57309;SDS011;43153;50.984;18.204;2023-03-01T10:42:35;35.70;;;19.30;;
57309;SDS011;43153;50.984;18.204;2023-03-01T10:47:42;30.50;;;18.00;;
57309;SDS011;43153;50.984;18.204;2023-03-01T10:50:20;30.50;;;16.30;;
57309;SDS011;43153;50.984;18.204;2023-03-01T10:53:00;34.80;;;17.80;;
57309;SDS011;43153;50.984;18.204;2023-03-01T10:55:34;28.90;;;16.90;;
57309;SDS011;43153;50.984;18.204;2023-03-01T10:58:18;30.10;;;17.60;;
57309;SDS011;43153;50.984;18.204;2023-03-01T11:08:46;24.60;;;13.60;;
57309;SDS011;43153;50.984;18.204;2023-03-01T11:16:36;28.80;;;16.90;;
57309;SDS011;43153;50.984;18.204;2023-03-01T11:19:34;28.50;;;15.80;;
57309;SDS011;43153;50.984;18.204;2023-03-01T11:22:13;32.00;;;17.20;;
57309;SDS011;43153;50.984;18.204;2023-03-01T11:24:51;36.20;;;18.50;;
57309;SDS011;43153;50.984;18.204;2023-03-01T11:27:24;29.30;;;15.50;;
57309;SDS011;43153;50.984;18.204;2023-03-01T11:30:03;33.20;;;17.70;;
57309;SDS011;43153;50.984;18.204;2023-03-01T11:32:41;27.20;;;15.90;;
57309;SDS011;43153;50.984;18.204;2023-03-01T11:35:21;31.10;;;17.30;;
57309;SDS011;43153;50.984;18.204;2023-03-01T11:40:55;28.50;;;16.40;;
57309;SDS011;43153;50.984;18.204;2023-03-01T11:44:19;27.90;;;14.40;;
57309;SDS011;43153;50.984;18.204;2023-03-01T12:25:21;30.60;;;16.80;;
57309;SDS011;43153;50.984;18.204;2023-03-01T12:36:22;31.40;;;16.80;;
57309;SDS011;43153;50.984;18.204;2023-03-01T12:39:11;28.90;;;16.00;;
57309;SDS011;43153;50.984;18.204;2023-03-01T12:50:21;29.70;;;15.90;;
57309;SDS011;43153;50.984;18.204;2023-03-01T12:52:57;31.60;;;17.00;;
57309;SDS011;43153;50.984;18.204;2023-03-01T12:55:35;34.60;;;14.80;;
57309;SDS011;43153;50.984;18.204;2023-03-01T12:58:23;40.00;;;16.00;;
57309;SDS011;43153;50.984;18.204;2023-03-01T13:01:13;29.90;;;15.60;;
57309;SDS011;43153;50.984;18.204;2023-03-01T13:12:45;32.30;;;16.40;;
57309;SDS011;43153;50.984;18.204;2023-03-01T13:17:58;29.00;;;16.00;;
57309;SDS011;43153;50.984;18.204;2023-03-01T13:20:33;29.70;;;15.10;;
57309;SDS011;43153;50.984;18.204;2023-03-01T13:28:40;37.10;;;18.00;;
57309;SDS011;43153;50.984;18.204;2023-03-01T13:33:49;29.00;;;14.50;;
57309;SDS011;43153;50.984;18.204;2023-03-01T13:39:05;22.90;;;13.10;;
57309;SDS011;43153;50.984;18.204;2023-03-01T13:45:17;25.10;;;13.80;;
57309;SDS011;43153;50.984;18.204;2023-03-01T13:48:18;26.90;;;14.70;;
57309;SDS011;43153;50.984;18.204;2023-03-01T13:51:00;29.10;;;12.70;;
57309;SDS011;43153;50.984;18.204;2023-03-01T13:53:35;20.30;;;11.20;;
57309;SDS011;43153;50.984;18.204;2023-03-01T13:56:17;20.10;;;11.30;;
57309;SDS011;43153;50.984;18.204;2023-03-01T14:01:38;23.00;;;12.70;;
57309;SDS011;43153;50.984;18.204;2023-03-01T14:05:05;24.80;;;13.40;;
57309;SDS011;43153;50.984;18.204;2023-03-01T14:07:50;25.60;;;14.40;;
57309;SDS011;43153;50.984;18.204;2023-03-01T14:17:21;27.10;;;16.20;;
57309;SDS011;43153;50.984;18.204;2023-03-01T14:20:17;30.30;;;15.10;;
57309;SDS011;43153;50.984;18.204;2023-03-01T14:22:58;34.90;;;15.90;;
57309;SDS011;43153;50.984;18.204;2023-03-01T14:25:32;30.90;;;15.30;;
57309;SDS011;43153;50.984;18.204;2023-03-01T14:30:58;30.00;;;14.70;;
57309;SDS011;43153;50.984;18.204;2023-03-01T14:33:31;29.90;;;15.60;;
57309;SDS011;43153;50.984;18.204;2023-03-01T14:36:12;29.70;;;16.10;;
57309;SDS011;43153;50.984;18.204;2023-03-01T14:38:48;27.30;;;14.70;;
57309;SDS011;43153;50.984;18.204;2023-03-01T14:41:19;27.30;;;14.90;;
57309;SDS011;43153;50.984;18.204;2023-03-01T14:46:23;30.60;;;15.50;;
57309;SDS011;43153;50.984;18.204;2023-03-01T14:49:04;31.10;;;15.40;;
57309;SDS011;43153;50.984;18.204;2023-03-01T14:51:42;29.00;;;14.80;;
57309;SDS011;43153;50.984;18.204;2023-03-01T14:57:20;36.00;;;16.30;;
57309;SDS011;43153;50.984;18.204;2023-03-01T14:59:53;29.90;;;15.40;;
57309;SDS011;43153;50.984;18.204;2023-03-01T15:02:28;28.40;;;14.50;;
57309;SDS011;43153;50.984;18.204;2023-03-01T15:04:58;29.80;;;14.30;;
57309;SDS011;43153;50.984;18.204;2023-03-01T15:07:33;27.60;;;13.00;;
57309;SDS011;43153;50.984;18.204;2023-03-01T15:10:02;28.00;;;14.80;;
57309;SDS011;43153;50.984;18.204;2023-03-01T15:20:26;33.80;;;15.40;;
57309;SDS011;43153;50.984;18.204;2023-03-01T15:22:58;30.40;;;15.60;;
57309;SDS011;43153;50.984;18.204;2023-03-01T16:02:57;30.30;;;16.40;;
57309;SDS011;43153;50.984;18.204;2023-03-01T16:05:29;33.10;;;15.50;;
57309;SDS011;43153;50.984;18.204;2023-03-01T16:08:01;36.10;;;15.40;;
57309;SDS011;43153;50.984;18.204;2023-03-01T16:10:34;34.20;;;15.80;;
57309;SDS011;43153;50.984;18.204;2023-03-01T16:13:10;33.70;;;16.00;;
57309;SDS011;43153;50.984;18.204;2023-03-01T16:15:36;31.70;;;15.50;;
57309;SDS011;43153;50.984;18.204;2023-03-01T16:18:12;49.40;;;19.40;;
57309;SDS011;43153;50.984;18.204;2023-03-01T16:20:40;41.90;;;19.20;;
57309;SDS011;43153;50.984;18.204;2023-03-01T16:23:10;47.00;;;18.80;;
57309;SDS011;43153;50.984;18.204;2023-03-01T16:25:43;47.50;;;19.00;;
57309;SDS011;43153;50.984;18.204;2023-03-01T16:28:25;50.10;;;18.70;;
57309;SDS011;43153;50.984;18.204;2023-03-01T16:30:59;48.80;;;20.60;;
57309;SDS011;43153;50.984;18.204;2023-03-01T16:33:34;51.30;;;20.90;;
57309;SDS011;43153;50.984;18.204;2023-03-01T16:36:07;47.40;;;20.60;;
57309;SDS011;43153;50.984;18.204;2023-03-01T16:38:48;55.10;;;20.90;;
57309;SDS011;43153;50.984;18.204;2023-03-01T16:41:20;59.80;;;20.90;;
57309;SDS011;43153;50.984;18.204;2023-03-01T16:43:49;51.90;;;20.60;;
57309;SDS011;43153;50.984;18.204;2023-03-01T16:46:17;49.00;;;20.80;;
57309;SDS011;43153;50.984;18.204;2023-03-01T16:49:10;57.80;;;23.40;;
57309;SDS011;43153;50.984;18.204;2023-03-01T16:51:43;65.90;;;25.20;;
57309;SDS011;43153;50.984;18.204;2023-03-01T16:54:16;59.90;;;24.20;;
57309;SDS011;43153;50.984;18.204;2023-03-01T16:56:58;70.20;;;30.80;;
57309;SDS011;43153;50.984;18.204;2023-03-01T16:59:27;99.80;;;35.20;;
57309;SDS011;43153;50.984;18.204;2023-03-01T17:01:58;146.90;;;53.70;;
57309;SDS011;43153;50.984;18.204;2023-03-01T17:04:27;168.30;;;61.50;;
57309;SDS011;43153;50.984;18.204;2023-03-01T17:07:01;168.10;;;63.00;;
57309;SDS011;43153;50.984;18.204;2023-03-01T17:09:28;149.60;;;60.30;;
57309;SDS011;43153;50.984;18.204;2023-03-01T17:11:54;167.60;;;65.60;;
57309;SDS011;43153;50.984;18.204;2023-03-01T17:14:27;157.50;;;62.00;;
57309;SDS011;43153;50.984;18.204;2023-03-01T17:17:02;139.60;;;53.10;;
57309;SDS011;43153;50.984;18.204;2023-03-01T17:19:35;123.80;;;49.10;;
57309;SDS011;43153;50.984;18.204;2023-03-01T17:22:17;93.60;;;36.50;;
57309;SDS011;43153;50.984;18.204;2023-03-01T17:24:46;89.70;;;36.10;;
57309;SDS011;43153;50.984;18.204;2023-03-01T17:27:16;79.90;;;30.40;;
57309;SDS011;43153;50.984;18.204;2023-03-01T17:29:53;72.40;;;30.80;;
57309;SDS011;43153;50.984;18.204;2023-03-01T17:32:43;69.70;;;28.40;;
57309;SDS011;43153;50.984;18.204;2023-03-01T17:35:23;69.70;;;28.70;;
57309;SDS011;43153;50.984;18.204;2023-03-01T17:37:52;75.20;;;28.80;;
57309;SDS011;43153;50.984;18.204;2023-03-01T17:40:26;76.40;;;33.50;;
57309;SDS011;43153;50.984;18.204;2023-03-01T17:42:57;85.90;;;35.90;;
57309;SDS011;43153;50.984;18.204;2023-03-01T17:45:29;100.40;;;39.40;;
57309;SDS011;43153;50.984;18.204;2023-03-01T17:47:54;89.70;;;36.50;;
57309;SDS011;43153;50.984;18.204;2023-03-01T17:50:21;89.00;;;35.00;;
57309;SDS011;43153;50.984;18.204;2023-03-01T17:52:51;95.30;;;37.70;;
57309;SDS011;43153;50.984;18.204;2023-03-01T17:55:43;87.00;;;35.10;;
57309;SDS011;43153;50.984;18.204;2023-03-01T17:58:19;91.50;;;36.80;;
57309;SDS011;43153;50.984;18.204;2023-03-01T18:00:50;97.50;;;37.10;;
57309;SDS011;43153;50.984;18.204;2023-03-01T18:03:51;92.70;;;33.70;;
57309;SDS011;43153;50.984;18.204;2023-03-01T18:06:22;83.50;;;35.40;;
57309;SDS011;43153;50.984;18.204;2023-03-01T18:08:54;90.00;;;34.90;;
57309;SDS011;43153;50.984;18.204;2023-03-01T18:11:29;76.20;;;32.30;;
57309;SDS011;43153;50.984;18.204;2023-03-01T18:13:55;102.80;;;38.10;;
57309;SDS011;43153;50.984;18.204;2023-03-01T18:16:25;93.10;;;37.90;;
57309;SDS011;43153;50.984;18.204;2023-03-01T18:18:53;113.60;;;42.70;;
57309;SDS011;43153;50.984;18.204;2023-03-01T18:21:20;112.10;;;41.50;;
57309;SDS011;43153;50.984;18.204;2023-03-01T18:23:51;130.40;;;47.90;;
57309;SDS011;43153;50.984;18.204;2023-03-01T18:26:22;120.90;;;42.60;;
57309;SDS011;43153;50.984;18.204;2023-03-01T18:28:52;120.40;;;44.70;;
57309;SDS011;43153;50.984;18.204;2023-03-01T18:31:23;119.10;;;40.80;;
57309;SDS011;43153;50.984;18.204;2023-03-01T18:34:01;110.10;;;45.10;;
57309;SDS011;43153;50.984;18.204;2023-03-01T18:36:31;107.10;;;43.50;;
57309;SDS011;43153;50.984;18.204;2023-03-01T18:39:03;113.00;;;43.10;;
57309;SDS011;43153;50.984;18.204;2023-03-01T18:41:35;110.80;;;43.70;;
57309;SDS011;43153;50.984;18.204;2023-03-01T18:44:14;122.60;;;45.40;;
57309;SDS011;43153;50.984;18.204;2023-03-01T18:46:45;116.20;;;48.40;;
57309;SDS011;43153;50.984;18.204;2023-03-01T18:49:17;177.60;;;60.30;;
57309;SDS011;43153;50.984;18.204;2023-03-01T18:51:52;172.60;;;59.30;;
57309;SDS011;43153;50.984;18.204;2023-03-01T18:56:49;193.00;;;66.80;;
57309;SDS011;43153;50.984;18.204;2023-03-01T18:59:16;193.20;;;65.30;;
57309;SDS011;43153;50.984;18.204;2023-03-01T19:02:04;169.50;;;65.20;;